KNUQ

Moffett Federal Afld Airport

Mountain View, California, USA
METAR KNUQ 280056Z 35013KT 10SM CLR 22/14 A2991 RMK AO2 SLP131 T02220144
Observed Flight Rules
May-28 @ 00:56 UTC (24 minutes ago) Visual Flight Rules
Wind Visibility Clouds
350° at 13 knots 10 miles
  • Clear skies
Temperatures Readings
Current 22°C / 72°F
Dewpoint 14°C / 57°F
Humidity 61%
Altimeter 29.91" Hg
Pressure 1013.1 hPa
Elevation 12
METAR KNUQ 280056Z 35013KT 10SM CLR 22/14 A2991 RMK AO2 SLP131 T02220144
Observed Flight Rules
May-28 @ 00:56 UTC
(24 minutes ago)
VFR
Wind Visibility
350° at 13 knots 10 miles
Clouds
  • Clear skies
Temperature Dewpoint
22°C / 72°F 14°C / 57°F
Humidity Altimeter Pressure
61% 29.91" Hg 1013.1 hPa